sensor_id;sensor_type;location;lat;lon;timestamp;P1;durP1;ratioP1;P2;durP2;ratioP2
32427;SDS011;18882;50.952;4.366;2022-08-19T00:01:27;35.92;;;21.52;;
32427;SDS011;18882;50.952;4.366;2022-08-19T00:03:55;35.03;;;21.38;;
32427;SDS011;18882;50.952;4.366;2022-08-19T00:06:22;35.53;;;21.20;;
32427;SDS011;18882;50.952;4.366;2022-08-19T00:08:48;36.20;;;22.35;;
32427;SDS011;18882;50.952;4.366;2022-08-19T00:11:13;40.13;;;23.25;;
32427;SDS011;18882;50.952;4.366;2022-08-19T00:13:39;38.28;;;23.08;;
32427;SDS011;18882;50.952;4.366;2022-08-19T00:16:05;39.67;;;23.35;;
32427;SDS011;18882;50.952;4.366;2022-08-19T00:18:32;42.90;;;22.88;;
32427;SDS011;18882;50.952;4.366;2022-08-19T00:20:58;43.15;;;23.63;;
32427;SDS011;18882;50.952;4.366;2022-08-19T00:23:24;42.05;;;24.35;;
32427;SDS011;18882;50.952;4.366;2022-08-19T00:25:51;44.08;;;24.48;;
32427;SDS011;18882;50.952;4.366;2022-08-19T00:28:17;45.00;;;25.00;;
32427;SDS011;18882;50.952;4.366;2022-08-19T00:30:43;45.10;;;24.77;;
32427;SDS011;18882;50.952;4.366;2022-08-19T00:33:09;48.53;;;26.38;;
32427;SDS011;18882;50.952;4.366;2022-08-19T00:35:35;51.15;;;27.85;;
32427;SDS011;18882;50.952;4.366;2022-08-19T00:38:03;47.42;;;26.23;;
32427;SDS011;18882;50.952;4.366;2022-08-19T00:40:31;51.97;;;28.13;;
32427;SDS011;18882;50.952;4.366;2022-08-19T00:42:57;52.10;;;26.90;;
32427;SDS011;18882;50.952;4.366;2022-08-19T00:45:24;55.20;;;27.63;;
32427;SDS011;18882;50.952;4.366;2022-08-19T00:47:51;55.03;;;27.67;;
32427;SDS011;18882;50.952;4.366;2022-08-19T00:50:18;52.40;;;27.48;;
32427;SDS011;18882;50.952;4.366;2022-08-19T00:52:47;54.53;;;28.80;;
32427;SDS011;18882;50.952;4.366;2022-08-19T00:55:16;62.53;;;30.05;;
32427;SDS011;18882;50.952;4.366;2022-08-19T00:57:51;60.78;;;30.88;;
32427;SDS011;18882;50.952;4.366;2022-08-19T01:00:23;62.60;;;31.33;;
32427;SDS011;18882;50.952;4.366;2022-08-19T01:02:50;68.53;;;33.13;;
32427;SDS011;18882;50.952;4.366;2022-08-19T01:05:23;71.43;;;32.58;;
32427;SDS011;18882;50.952;4.366;2022-08-19T01:07:52;69.35;;;31.90;;
32427;SDS011;18882;50.952;4.366;2022-08-19T01:10:20;68.38;;;32.13;;
32427;SDS011;18882;50.952;4.366;2022-08-19T01:12:49;72.50;;;34.80;;
32427;SDS011;18882;50.952;4.366;2022-08-19T01:15:17;82.53;;;32.80;;
32427;SDS011;18882;50.952;4.366;2022-08-19T01:17:46;71.05;;;32.55;;
32427;SDS011;18882;50.952;4.366;2022-08-19T01:20:13;79.63;;;34.15;;
32427;SDS011;18882;50.952;4.366;2022-08-19T01:22:43;71.20;;;32.85;;
32427;SDS011;18882;50.952;4.366;2022-08-19T01:25:20;76.65;;;34.75;;
32427;SDS011;18882;50.952;4.366;2022-08-19T01:27:52;81.22;;;35.38;;
32427;SDS011;18882;50.952;4.366;2022-08-19T01:30:21;87.20;;;35.58;;
32427;SDS011;18882;50.952;4.366;2022-08-19T01:32:51;85.47;;;34.63;;
32427;SDS011;18882;50.952;4.366;2022-08-19T01:35:17;91.10;;;36.05;;
32427;SDS011;18882;50.952;4.366;2022-08-19T01:37:47;77.90;;;33.63;;
32427;SDS011;18882;50.952;4.366;2022-08-19T01:40:17;74.18;;;33.13;;
32427;SDS011;18882;50.952;4.366;2022-08-19T01:42:45;80.72;;;34.28;;
32427;SDS011;18882;50.952;4.366;2022-08-19T01:45:13;79.78;;;34.55;;
32427;SDS011;18882;50.952;4.366;2022-08-19T01:47:39;85.28;;;34.63;;
32427;SDS011;18882;50.952;4.366;2022-08-19T01:50:07;76.78;;;33.22;;
32427;SDS011;18882;50.952;4.366;2022-08-19T01:52:36;78.45;;;33.70;;
32427;SDS011;18882;50.952;4.366;2022-08-19T01:55:04;77.60;;;32.65;;
32427;SDS011;18882;50.952;4.366;2022-08-19T01:57:33;81.90;;;34.50;;
32427;SDS011;18882;50.952;4.366;2022-08-19T02:00:00;77.38;;;32.95;;
32427;SDS011;18882;50.952;4.366;2022-08-19T02:02:27;73.35;;;31.15;;
32427;SDS011;18882;50.952;4.366;2022-08-19T02:04:53;72.60;;;31.90;;
32427;SDS011;18882;50.952;4.366;2022-08-19T02:07:19;72.00;;;32.30;;
32427;SDS011;18882;50.952;4.366;2022-08-19T02:09:46;70.25;;;30.50;;
32427;SDS011;18882;50.952;4.366;2022-08-19T02:12:13;63.40;;;29.45;;
32427;SDS011;18882;50.952;4.366;2022-08-19T02:14:39;63.67;;;29.13;;
32427;SDS011;18882;50.952;4.366;2022-08-19T02:17:05;65.18;;;30.85;;
32427;SDS011;18882;50.952;4.366;2022-08-19T02:19:31;73.18;;;31.48;;
32427;SDS011;18882;50.952;4.366;2022-08-19T02:22:00;67.95;;;29.80;;
32427;SDS011;18882;50.952;4.366;2022-08-19T02:24:26;63.45;;;28.23;;
32427;SDS011;18882;50.952;4.366;2022-08-19T02:26:52;62.95;;;28.70;;
32427;SDS011;18882;50.952;4.366;2022-08-19T02:29:18;53.42;;;24.90;;
32427;SDS011;18882;50.952;4.366;2022-08-19T02:31:44;52.20;;;24.35;;
32427;SDS011;18882;50.952;4.366;2022-08-19T02:34:10;52.60;;;23.85;;
32427;SDS011;18882;50.952;4.366;2022-08-19T02:36:35;52.38;;;23.73;;
32427;SDS011;18882;50.952;4.366;2022-08-19T02:39:01;46.33;;;21.90;;
32427;SDS011;18882;50.952;4.366;2022-08-19T02:41:28;50.03;;;22.65;;
32427;SDS011;18882;50.952;4.366;2022-08-19T02:43:56;46.20;;;22.80;;
32427;SDS011;18882;50.952;4.366;2022-08-19T02:46:27;45.97;;;22.58;;
32427;SDS011;18882;50.952;4.366;2022-08-19T02:48:55;43.33;;;20.80;;
32427;SDS011;18882;50.952;4.366;2022-08-19T02:51:24;41.63;;;20.92;;
32427;SDS011;18882;50.952;4.366;2022-08-19T02:53:51;43.95;;;22.15;;
32427;SDS011;18882;50.952;4.366;2022-08-19T02:56:17;42.65;;;20.83;;
32427;SDS011;18882;50.952;4.366;2022-08-19T02:58:43;47.72;;;21.90;;
32427;SDS011;18882;50.952;4.366;2022-08-19T03:01:09;41.35;;;21.35;;
32427;SDS011;18882;50.952;4.366;2022-08-19T03:03:37;44.20;;;22.25;;
32427;SDS011;18882;50.952;4.366;2022-08-19T03:06:07;49.78;;;23.95;;
32427;SDS011;18882;50.952;4.366;2022-08-19T03:08:36;42.90;;;20.33;;
32427;SDS011;18882;50.952;4.366;2022-08-19T03:11:02;44.58;;;21.73;;
32427;SDS011;18882;50.952;4.366;2022-08-19T03:13:28;45.38;;;21.85;;
32427;SDS011;18882;50.952;4.366;2022-08-19T03:15:54;48.15;;;21.90;;
32427;SDS011;18882;50.952;4.366;2022-08-19T03:18:20;47.58;;;21.60;;
32427;SDS011;18882;50.952;4.366;2022-08-19T03:20:50;46.33;;;21.92;;
32427;SDS011;18882;50.952;4.366;2022-08-19T03:23:20;46.40;;;22.13;;
32427;SDS011;18882;50.952;4.366;2022-08-19T03:25:47;44.40;;;20.95;;
32427;SDS011;18882;50.952;4.366;2022-08-19T03:28:15;43.17;;;21.00;;
32427;SDS011;18882;50.952;4.366;2022-08-19T03:30:42;39.78;;;21.38;;
32427;SDS011;18882;50.952;4.366;2022-08-19T03:33:08;44.67;;;20.58;;
32427;SDS011;18882;50.952;4.366;2022-08-19T03:35:36;45.30;;;20.95;;
32427;SDS011;18882;50.952;4.366;2022-08-19T03:38:05;42.28;;;20.85;;
32427;SDS011;18882;50.952;4.366;2022-08-19T03:40:32;41.00;;;20.10;;
32427;SDS011;18882;50.952;4.366;2022-08-19T03:43:01;47.50;;;21.42;;
32427;SDS011;18882;50.952;4.366;2022-08-19T03:45:27;45.22;;;20.67;;
32427;SDS011;18882;50.952;4.366;2022-08-19T03:47:53;47.50;;;22.02;;
32427;SDS011;18882;50.952;4.366;2022-08-19T03:50:19;48.88;;;21.02;;
32427;SDS011;18882;50.952;4.366;2022-08-19T03:52:49;49.00;;;22.90;;
32427;SDS011;18882;50.952;4.366;2022-08-19T03:55:16;46.08;;;21.33;;
32427;SDS011;18882;50.952;4.366;2022-08-19T03:57:42;44.10;;;21.77;;
32427;SDS011;18882;50.952;4.366;2022-08-19T04:00:08;49.08;;;21.70;;
32427;SDS011;18882;50.952;4.366;2022-08-19T04:02:34;45.38;;;20.83;;
32427;SDS011;18882;50.952;4.366;2022-08-19T04:05:00;43.10;;;20.77;;
32427;SDS011;18882;50.952;4.366;2022-08-19T04:07:26;48.40;;;20.95;;
32427;SDS011;18882;50.952;4.366;2022-08-19T04:09:52;49.60;;;21.90;;
32427;SDS011;18882;50.952;4.366;2022-08-19T04:12:18;46.13;;;21.92;;
32427;SDS011;18882;50.952;4.366;2022-08-19T04:14:45;45.47;;;20.98;;
32427;SDS011;18882;50.952;4.366;2022-08-19T04:17:11;47.10;;;21.10;;
32427;SDS011;18882;50.952;4.366;2022-08-19T04:19:38;52.53;;;20.83;;
32427;SDS011;18882;50.952;4.366;2022-08-19T04:22:04;43.38;;;20.42;;
32427;SDS011;18882;50.952;4.366;2022-08-19T04:24:30;46.40;;;19.73;;
32427;SDS011;18882;50.952;4.366;2022-08-19T04:26:56;41.67;;;20.40;;
32427;SDS011;18882;50.952;4.366;2022-08-19T04:29:22;40.08;;;19.00;;
32427;SDS011;18882;50.952;4.366;2022-08-19T04:31:49;40.15;;;17.95;;
32427;SDS011;18882;50.952;4.366;2022-08-19T04:34:18;41.60;;;17.98;;
32427;SDS011;18882;50.952;4.366;2022-08-19T04:36:47;42.75;;;19.13;;
32427;SDS011;18882;50.952;4.366;2022-08-19T04:39:16;44.05;;;20.25;;
32427;SDS011;18882;50.952;4.366;2022-08-19T04:41:45;42.97;;;17.85;;
32427;SDS011;18882;50.952;4.366;2022-08-19T04:44:33;45.58;;;19.35;;
32427;SDS011;18882;50.952;4.366;2022-08-19T04:47:00;40.72;;;17.63;;
32427;SDS011;18882;50.952;4.366;2022-08-19T04:49:27;42.17;;;17.75;;
32427;SDS011;18882;50.952;4.366;2022-08-19T04:51:53;36.67;;;17.38;;
32427;SDS011;18882;50.952;4.366;2022-08-19T04:54:19;40.47;;;17.90;;
32427;SDS011;18882;50.952;4.366;2022-08-19T04:56:47;41.42;;;18.60;;
32427;SDS011;18882;50.952;4.366;2022-08-19T04:59:17;41.33;;;17.20;;
32427;SDS011;18882;50.952;4.366;2022-08-19T05:01:45;33.25;;;17.45;;
32427;SDS011;18882;50.952;4.366;2022-08-19T05:04:14;40.45;;;17.38;;
32427;SDS011;18882;50.952;4.366;2022-08-19T05:06:42;38.75;;;16.73;;
32427;SDS011;18882;50.952;4.366;2022-08-19T05:09:08;40.95;;;16.63;;
32427;SDS011;18882;50.952;4.366;2022-08-19T05:11:35;42.58;;;17.20;;
32427;SDS011;18882;50.952;4.366;2022-08-19T05:14:08;40.03;;;16.88;;
32427;SDS011;18882;50.952;4.366;2022-08-19T05:16:34;40.92;;;16.08;;
32427;SDS011;18882;50.952;4.366;2022-08-19T05:19:00;36.72;;;16.30;;
32427;SDS011;18882;50.952;4.366;2022-08-19T05:21:45;32.35;;;15.10;;
32427;SDS011;18882;50.952;4.366;2022-08-19T05:24:29;36.28;;;15.88;;
32427;SDS011;18882;50.952;4.366;2022-08-19T05:26:56;39.75;;;16.20;;
32427;SDS011;18882;50.952;4.366;2022-08-19T05:29:22;29.73;;;15.00;;
32427;SDS011;18882;50.952;4.366;2022-08-19T05:31:50;35.53;;;14.45;;
32427;SDS011;18882;50.952;4.366;2022-08-19T05:34:17;33.00;;;14.35;;
32427;SDS011;18882;50.952;4.366;2022-08-19T05:36:46;29.83;;;13.68;;
32427;SDS011;18882;50.952;4.366;2022-08-19T05:39:13;30.98;;;13.60;;
32427;SDS011;18882;50.952;4.366;2022-08-19T05:41:43;28.90;;;13.70;;
32427;SDS011;18882;50.952;4.366;2022-08-19T05:44:09;28.70;;;13.23;;
32427;SDS011;18882;50.952;4.366;2022-08-19T05:46:36;28.05;;;13.02;;
32427;SDS011;18882;50.952;4.366;2022-08-19T05:49:04;31.95;;;14.40;;
32427;SDS011;18882;50.952;4.366;2022-08-19T05:51:31;33.40;;;12.73;;
32427;SDS011;18882;50.952;4.366;2022-08-19T05:53:59;25.85;;;12.80;;
32427;SDS011;18882;50.952;4.366;2022-08-19T05:56:25;27.45;;;12.02;;
32427;SDS011;18882;50.952;4.366;2022-08-19T05:58:51;26.02;;;11.73;;
32427;SDS011;18882;50.952;4.366;2022-08-19T06:01:19;25.13;;;11.48;;
32427;SDS011;18882;50.952;4.366;2022-08-19T06:03:46;24.67;;;10.55;;
32427;SDS011;18882;50.952;4.366;2022-08-19T06:06:15;33.70;;;12.07;;
32427;SDS011;18882;50.952;4.366;2022-08-19T06:08:41;27.10;;;12.02;;
32427;SDS011;18882;50.952;4.366;2022-08-19T06:13:43;27.02;;;12.65;;
32427;SDS011;18882;50.952;4.366;2022-08-19T06:16:14;27.70;;;11.68;;
32427;SDS011;18882;50.952;4.366;2022-08-19T06:18:47;24.52;;;10.90;;
32427;SDS011;18882;50.952;4.366;2022-08-19T06:21:16;29.83;;;11.77;;
32427;SDS011;18882;50.952;4.366;2022-08-19T06:23:43;24.58;;;10.88;;
32427;SDS011;18882;50.952;4.366;2022-08-19T06:26:13;22.33;;;11.65;;
32427;SDS011;18882;50.952;4.366;2022-08-19T06:28:40;23.40;;;10.68;;
32427;SDS011;18882;50.952;4.366;2022-08-19T06:31:10;20.00;;;11.05;;
32427;SDS011;18882;50.952;4.366;2022-08-19T06:33:37;29.98;;;11.43;;
32427;SDS011;18882;50.952;4.366;2022-08-19T06:36:04;26.98;;;11.40;;
32427;SDS011;18882;50.952;4.366;2022-08-19T06:38:29;28.38;;;12.00;;
32427;SDS011;18882;50.952;4.366;2022-08-19T06:41:00;21.33;;;10.90;;
32427;SDS011;18882;50.952;4.366;2022-08-19T06:43:29;16.73;;;9.68;;
32427;SDS011;18882;50.952;4.366;2022-08-19T06:45:56;23.35;;;10.55;;
32427;SDS011;18882;50.952;4.366;2022-08-19T06:48:21;21.67;;;9.88;;
32427;SDS011;18882;50.952;4.366;2022-08-19T06:50:47;15.55;;;8.93;;
32427;SDS011;18882;50.952;4.366;2022-08-19T06:53:14;20.65;;;9.88;;
32427;SDS011;18882;50.952;4.366;2022-08-19T06:55:40;22.15;;;10.57;;
32427;SDS011;18882;50.952;4.366;2022-08-19T06:58:06;22.77;;;9.18;;
32427;SDS011;18882;50.952;4.366;2022-08-19T07:00:32;16.65;;;8.93;;
32427;SDS011;18882;50.952;4.366;2022-08-19T07:02:57;20.33;;;9.68;;
32427;SDS011;18882;50.952;4.366;2022-08-19T07:05:23;17.02;;;9.93;;
32427;SDS011;18882;50.952;4.366;2022-08-19T07:07:49;18.92;;;10.63;;
32427;SDS011;18882;50.952;4.366;2022-08-19T07:10:15;22.25;;;10.20;;
32427;SDS011;18882;50.952;4.366;2022-08-19T07:12:41;19.52;;;9.30;;
32427;SDS011;18882;50.952;4.366;2022-08-19T07:15:07;21.90;;;9.77;;
32427;SDS011;18882;50.952;4.366;2022-08-19T07:17:35;21.33;;;9.93;;
32427;SDS011;18882;50.952;4.366;2022-08-19T07:20:04;15.23;;;8.38;;
32427;SDS011;18882;50.952;4.366;2022-08-19T07:22:32;18.60;;;9.45;;
32427;SDS011;18882;50.952;4.366;2022-08-19T07:24:59;16.08;;;8.98;;
32427;SDS011;18882;50.952;4.366;2022-08-19T07:27:25;18.63;;;8.30;;
32427;SDS011;18882;50.952;4.366;2022-08-19T07:29:51;17.52;;;8.77;;
32427;SDS011;18882;50.952;4.366;2022-08-19T07:32:18;13.70;;;8.50;;
32427;SDS011;18882;50.952;4.366;2022-08-19T07:34:43;18.95;;;8.75;;
32427;SDS011;18882;50.952;4.366;2022-08-19T07:37:10;14.20;;;7.97;;
32427;SDS011;18882;50.952;4.366;2022-08-19T07:39:36;12.00;;;7.32;;
32427;SDS011;18882;50.952;4.366;2022-08-19T07:42:05;14.18;;;7.65;;
32427;SDS011;18882;50.952;4.366;2022-08-19T07:44:33;18.75;;;7.75;;
32427;SDS011;18882;50.952;4.366;2022-08-19T07:46:59;14.13;;;6.97;;
32427;SDS011;18882;50.952;4.366;2022-08-19T07:49:25;12.85;;;7.28;;
32427;SDS011;18882;50.952;4.366;2022-08-19T07:51:54;13.02;;;6.80;;
32427;SDS011;18882;50.952;4.366;2022-08-19T07:54:23;8.70;;;5.40;;
32427;SDS011;18882;50.952;4.366;2022-08-19T07:56:50;9.63;;;5.85;;
32427;SDS011;18882;50.952;4.366;2022-08-19T07:59:16;8.02;;;5.45;;
32427;SDS011;18882;50.952;4.366;2022-08-19T08:01:43;8.40;;;5.03;;
32427;SDS011;18882;50.952;4.366;2022-08-19T08:04:09;11.93;;;4.95;;
32427;SDS011;18882;50.952;4.366;2022-08-19T08:06:53;10.48;;;5.07;;
32427;SDS011;18882;50.952;4.366;2022-08-19T08:09:38;10.32;;;4.63;;
32427;SDS011;18882;50.952;4.366;2022-08-19T08:12:06;11.32;;;4.55;;
32427;SDS011;18882;50.952;4.366;2022-08-19T08:14:37;10.57;;;4.65;;
32427;SDS011;18882;50.952;4.366;2022-08-19T08:17:18;10.25;;;4.28;;
32427;SDS011;18882;50.952;4.366;2022-08-19T08:19:45;7.00;;;4.13;;
32427;SDS011;18882;50.952;4.366;2022-08-19T08:22:13;10.63;;;4.10;;
32427;SDS011;18882;50.952;4.366;2022-08-19T08:25:19;8.27;;;3.92;;
32427;SDS011;18882;50.952;4.366;2022-08-19T08:27:47;8.85;;;4.28;;
32427;SDS011;18882;50.952;4.366;2022-08-19T08:30:21;10.35;;;4.82;;
32427;SDS011;18882;50.952;4.366;2022-08-19T08:32:49;7.75;;;3.90;;
32427;SDS011;18882;50.952;4.366;2022-08-19T08:35:18;5.95;;;4.38;;
32427;SDS011;18882;50.952;4.366;2022-08-19T08:37:45;8.57;;;5.03;;
32427;SDS011;18882;50.952;4.366;2022-08-19T08:40:37;7.38;;;4.45;;
32427;SDS011;18882;50.952;4.366;2022-08-19T08:46:12;8.43;;;4.68;;
32427;SDS011;18882;50.952;4.366;2022-08-19T08:48:47;7.43;;;4.55;;
32427;SDS011;18882;50.952;4.366;2022-08-19T08:51:38;7.07;;;4.40;;
32427;SDS011;18882;50.952;4.366;2022-08-19T08:54:08;11.93;;;4.45;;
32427;SDS011;18882;50.952;4.366;2022-08-19T08:56:37;9.43;;;5.15;;
32427;SDS011;18882;50.952;4.366;2022-08-19T08:59:05;8.35;;;5.30;;
32427;SDS011;18882;50.952;4.366;2022-08-19T09:01:42;9.57;;;5.43;;
32427;SDS011;18882;50.952;4.366;2022-08-19T09:04:08;9.70;;;5.22;;
32427;SDS011;18882;50.952;4.366;2022-08-19T09:06:41;6.45;;;5.10;;
32427;SDS011;18882;50.952;4.366;2022-08-19T09:09:22;11.95;;;5.05;;
32427;SDS011;18882;50.952;4.366;2022-08-19T09:14:50;9.27;;;5.60;;
32427;SDS011;18882;50.952;4.366;2022-08-19T09:17:26;9.73;;;5.25;;
32427;SDS011;18882;50.952;4.366;2022-08-19T09:22:46;11.05;;;5.88;;
32427;SDS011;18882;50.952;4.366;2022-08-19T09:25:15;11.73;;;5.95;;
32427;SDS011;18882;50.952;4.366;2022-08-19T09:27:43;8.82;;;5.25;;
32427;SDS011;18882;50.952;4.366;2022-08-19T09:30:19;13.63;;;5.65;;
32427;SDS011;18882;50.952;4.366;2022-08-19T09:32:47;10.75;;;5.80;;
32427;SDS011;18882;50.952;4.366;2022-08-19T09:35:13;12.00;;;5.38;;
32427;SDS011;18882;50.952;4.366;2022-08-19T09:37:40;14.40;;;6.03;;
32427;SDS011;18882;50.952;4.366;2022-08-19T09:40:08;12.77;;;6.15;;
32427;SDS011;18882;50.952;4.366;2022-08-19T09:42:34;12.15;;;5.80;;
32427;SDS011;18882;50.952;4.366;2022-08-19T09:45:00;10.88;;;5.45;;
32427;SDS011;18882;50.952;4.366;2022-08-19T09:47:27;9.40;;;4.75;;
32427;SDS011;18882;50.952;4.366;2022-08-19T09:49:53;7.53;;;4.65;;
32427;SDS011;18882;50.952;4.366;2022-08-19T09:52:22;9.38;;;4.78;;
32427;SDS011;18882;50.952;4.366;2022-08-19T09:54:51;6.00;;;4.05;;
32427;SDS011;18882;50.952;4.366;2022-08-19T09:57:18;8.40;;;4.13;;
32427;SDS011;18882;50.952;4.366;2022-08-19T09:59:43;5.72;;;3.58;;
32427;SDS011;18882;50.952;4.366;2022-08-19T10:02:10;8.45;;;3.95;;
32427;SDS011;18882;50.952;4.366;2022-08-19T10:04:36;5.88;;;3.70;;
32427;SDS011;18882;50.952;4.366;2022-08-19T10:07:21;4.63;;;3.40;;
32427;SDS011;18882;50.952;4.366;2022-08-19T10:09:46;12.88;;;4.20;;
32427;SDS011;18882;50.952;4.366;2022-08-19T10:12:12;4.90;;;3.15;;
32427;SDS011;18882;50.952;4.366;2022-08-19T10:14:39;4.68;;;3.08;;
32427;SDS011;18882;50.952;4.366;2022-08-19T10:17:04;7.28;;;3.22;;
32427;SDS011;18882;50.952;4.366;2022-08-19T10:19:33;3.95;;;3.40;;
32427;SDS011;18882;50.952;4.366;2022-08-19T10:22:07;4.18;;;3.40;;
32427;SDS011;18882;50.952;4.366;2022-08-19T10:24:35;5.78;;;3.55;;
32427;SDS011;18882;50.952;4.366;2022-08-19T10:27:01;8.57;;;3.00;;
32427;SDS011;18882;50.952;4.366;2022-08-19T10:29:30;6.75;;;3.05;;
32427;SDS011;18882;50.952;4.366;2022-08-19T10:32:00;6.95;;;3.03;;
32427;SDS011;18882;50.952;4.366;2022-08-19T10:34:28;4.50;;;3.60;;
32427;SDS011;18882;50.952;4.366;2022-08-19T10:36:55;6.68;;;3.97;;
32427;SDS011;18882;50.952;4.366;2022-08-19T10:39:22;6.28;;;3.47;;
32427;SDS011;18882;50.952;4.366;2022-08-19T10:42:13;6.55;;;4.13;;
32427;SDS011;18882;50.952;4.366;2022-08-19T10:44:42;7.05;;;3.97;;
32427;SDS011;18882;50.952;4.366;2022-08-19T10:47:11;8.82;;;4.25;;
32427;SDS011;18882;50.952;4.366;2022-08-19T10:49:40;8.05;;;4.22;;
32427;SDS011;18882;50.952;4.366;2022-08-19T10:52:29;8.93;;;4.30;;
32427;SDS011;18882;50.952;4.366;2022-08-19T10:55:14;7.10;;;3.83;;
32427;SDS011;18882;50.952;4.366;2022-08-19T10:57:59;13.13;;;4.18;;
32427;SDS011;18882;50.952;4.366;2022-08-19T11:00:25;6.13;;;4.40;;
32427;SDS011;18882;50.952;4.366;2022-08-19T11:03:12;7.95;;;3.97;;
32427;SDS011;18882;50.952;4.366;2022-08-19T11:05:37;7.15;;;4.03;;
32427;SDS011;18882;50.952;4.366;2022-08-19T11:08:13;6.05;;;3.97;;
32427;SDS011;18882;50.952;4.366;2022-08-19T11:10:41;7.07;;;4.43;;
32427;SDS011;18882;50.952;4.366;2022-08-19T11:13:09;9.75;;;4.90;;
32427;SDS011;18882;50.952;4.366;2022-08-19T11:15:55;5.72;;;4.65;;
32427;SDS011;18882;50.952;4.366;2022-08-19T11:18:45;6.57;;;3.92;;
32427;SDS011;18882;50.952;4.366;2022-08-19T11:21:21;7.55;;;3.88;;
32427;SDS011;18882;50.952;4.366;2022-08-19T11:23:57;4.45;;;3.58;;
32427;SDS011;18882;50.952;4.366;2022-08-19T11:26:27;5.40;;;2.85;;
32427;SDS011;18882;50.952;4.366;2022-08-19T11:28:55;3.90;;;2.67;;
32427;SDS011;18882;50.952;4.366;2022-08-19T11:31:24;7.95;;;2.60;;
32427;SDS011;18882;50.952;4.366;2022-08-19T11:33:56;3.55;;;2.53;;
32427;SDS011;18882;50.952;4.366;2022-08-19T11:36:24;6.25;;;3.00;;
32427;SDS011;18882;50.952;4.366;2022-08-19T11:38:52;4.88;;;2.78;;
32427;SDS011;18882;50.952;4.366;2022-08-19T11:41:23;3.50;;;2.53;;
32427;SDS011;18882;50.952;4.366;2022-08-19T11:43:59;3.17;;;2.50;;
32427;SDS011;18882;50.952;4.366;2022-08-19T11:46:28;3.20;;;2.63;;
32427;SDS011;18882;50.952;4.366;2022-08-19T11:49:15;3.80;;;2.67;;
32427;SDS011;18882;50.952;4.366;2022-08-19T11:51:43;4.20;;;3.03;;
32427;SDS011;18882;50.952;4.366;2022-08-19T11:54:11;5.38;;;3.80;;
32427;SDS011;18882;50.952;4.366;2022-08-19T11:56:38;7.85;;;4.15;;
32427;SDS011;18882;50.952;4.366;2022-08-19T11:59:04;5.13;;;3.63;;
32427;SDS011;18882;50.952;4.366;2022-08-19T12:01:30;7.50;;;3.80;;
32427;SDS011;18882;50.952;4.366;2022-08-19T12:03:56;6.93;;;4.13;;
32427;SDS011;18882;50.952;4.366;2022-08-19T12:06:25;6.32;;;4.22;;
32427;SDS011;18882;50.952;4.366;2022-08-19T12:08:54;7.50;;;4.18;;
32427;SDS011;18882;50.952;4.366;2022-08-19T12:11:23;10.25;;;5.00;;
32427;SDS011;18882;50.952;4.366;2022-08-19T12:13:49;6.82;;;5.15;;
32427;SDS011;18882;50.952;4.366;2022-08-19T12:16:25;7.10;;;5.22;;
32427;SDS011;18882;50.952;4.366;2022-08-19T12:18:52;7.40;;;4.93;;
32427;SDS011;18882;50.952;4.366;2022-08-19T12:21:21;5.30;;;4.80;;
32427;SDS011;18882;50.952;4.366;2022-08-19T12:23:50;12.32;;;6.38;;
32427;SDS011;18882;50.952;4.366;2022-08-19T12:26:16;9.57;;;5.60;;
32427;SDS011;18882;50.952;4.366;2022-08-19T12:28:42;6.60;;;5.40;;
32427;SDS011;18882;50.952;4.366;2022-08-19T12:31:09;8.13;;;5.75;;
32427;SDS011;18882;50.952;4.366;2022-08-19T12:33:38;7.05;;;5.07;;
32427;SDS011;18882;50.952;4.366;2022-08-19T12:36:07;5.55;;;4.25;;
32427;SDS011;18882;50.952;4.366;2022-08-19T12:38:35;5.40;;;4.53;;
32427;SDS011;18882;50.952;4.366;2022-08-19T12:41:02;5.63;;;4.03;;
32427;SDS011;18882;50.952;4.366;2022-08-19T12:43:33;5.75;;;4.13;;
32427;SDS011;18882;50.952;4.366;2022-08-19T12:48:33;5.13;;;4.05;;
32427;SDS011;18882;50.952;4.366;2022-08-19T12:51:00;4.72;;;3.08;;
32427;SDS011;18882;50.952;4.366;2022-08-19T12:53:38;4.95;;;3.30;;
32427;SDS011;18882;50.952;4.366;2022-08-19T12:56:08;3.53;;;3.00;;
32427;SDS011;18882;50.952;4.366;2022-08-19T12:58:36;6.10;;;3.70;;
32427;SDS011;18882;50.952;4.366;2022-08-19T13:01:09;4.40;;;3.28;;
32427;SDS011;18882;50.952;4.366;2022-08-19T13:03:36;3.28;;;2.97;;
32427;SDS011;18882;50.952;4.366;2022-08-19T13:06:02;4.45;;;2.88;;
32427;SDS011;18882;50.952;4.366;2022-08-19T13:08:28;3.83;;;1.80;;
32427;SDS011;18882;50.952;4.366;2022-08-19T13:10:54;2.47;;;2.25;;
32427;SDS011;18882;50.952;4.366;2022-08-19T13:13:20;2.67;;;1.88;;
32427;SDS011;18882;50.952;4.366;2022-08-19T13:15:46;3.60;;;2.45;;
32427;SDS011;18882;50.952;4.366;2022-08-19T13:18:12;3.00;;;2.08;;
32427;SDS011;18882;50.952;4.366;2022-08-19T13:20:39;2.13;;;1.80;;
32427;SDS011;18882;50.952;4.366;2022-08-19T13:23:08;3.10;;;2.08;;
32427;SDS011;18882;50.952;4.366;2022-08-19T13:25:35;3.00;;;2.00;;
32427;SDS011;18882;50.952;4.366;2022-08-19T13:28:02;1.70;;;1.60;;
32427;SDS011;18882;50.952;4.366;2022-08-19T13:30:28;2.03;;;1.92;;
32427;SDS011;18882;50.952;4.366;2022-08-19T13:33:12;2.05;;;1.95;;
32427;SDS011;18882;50.952;4.366;2022-08-19T13:38:13;6.97;;;2.20;;
32427;SDS011;18882;50.952;4.366;2022-08-19T13:40:41;2.28;;;2.08;;
32427;SDS011;18882;50.952;4.366;2022-08-19T13:43:08;9.02;;;1.95;;
32427;SDS011;18882;50.952;4.366;2022-08-19T13:45:34;3.58;;;2.13;;
32427;SDS011;18882;50.952;4.366;2022-08-19T13:48:02;1.42;;;1.20;;
32427;SDS011;18882;50.952;4.366;2022-08-19T13:50:35;2.00;;;1.88;;
32427;SDS011;18882;50.952;4.366;2022-08-19T13:55:35;1.48;;;1.38;;
32427;SDS011;18882;50.952;4.366;2022-08-19T13:58:03;1.55;;;1.35;;
32427;SDS011;18882;50.952;4.366;2022-08-19T14:00:31;3.03;;;1.30;;
32427;SDS011;18882;50.952;4.366;2022-08-19T14:02:58;1.65;;;1.45;;
32427;SDS011;18882;50.952;4.366;2022-08-19T14:05:25;0.88;;;0.88;;
32427;SDS011;18882;50.952;4.366;2022-08-19T14:07:52;0.98;;;0.88;;
32427;SDS011;18882;50.952;4.366;2022-08-19T14:10:18;1.55;;;1.10;;
32427;SDS011;18882;50.952;4.366;2022-08-19T14:12:44;1.13;;;0.90;;
32427;SDS011;18882;50.952;4.366;2022-08-19T14:15:11;6.20;;;1.27;;
32427;SDS011;18882;50.952;4.366;2022-08-19T14:17:40;3.42;;;1.63;;
32427;SDS011;18882;50.952;4.366;2022-08-19T14:20:08;1.60;;;1.42;;
32427;SDS011;18882;50.952;4.366;2022-08-19T14:22:36;1.67;;;1.58;;
32427;SDS011;18882;50.952;4.366;2022-08-19T14:25:04;2.20;;;1.30;;
32427;SDS011;18882;50.952;4.366;2022-08-19T14:27:35;1.27;;;1.17;;
32427;SDS011;18882;50.952;4.366;2022-08-19T14:30:04;4.88;;;0.88;;
32427;SDS011;18882;50.952;4.366;2022-08-19T14:32:31;1.42;;;1.10;;
32427;SDS011;18882;50.952;4.366;2022-08-19T14:34:58;0.77;;;0.77;;
32427;SDS011;18882;50.952;4.366;2022-08-19T14:37:23;1.45;;;0.90;;
32427;SDS011;18882;50.952;4.366;2022-08-19T14:39:49;2.67;;;1.08;;
32427;SDS011;18882;50.952;4.366;2022-08-19T14:42:15;2.72;;;1.10;;
32427;SDS011;18882;50.952;4.366;2022-08-19T14:44:41;1.88;;;1.40;;
32427;SDS011;18882;50.952;4.366;2022-08-19T14:47:08;1.83;;;1.30;;
32427;SDS011;18882;50.952;4.366;2022-08-19T14:49:34;2.42;;;1.33;;
32427;SDS011;18882;50.952;4.366;2022-08-19T14:52:00;1.70;;;0.80;;
32427;SDS011;18882;50.952;4.366;2022-08-19T14:54:25;0.90;;;0.90;;
32427;SDS011;18882;50.952;4.366;2022-08-19T14:56:51;1.67;;;1.20;;
32427;SDS011;18882;50.952;4.366;2022-08-19T14:59:17;3.35;;;1.23;;
32427;SDS011;18882;50.952;4.366;2022-08-19T15:01:42;2.05;;;1.05;;